Manchester, United Kingdom

3:50 AM BST on September 01, 2015 (GMT +0100)
Manchester | | Change Station
CLOSE
Current Station
Airport
Location: Manchester,
Elevation: 256 ft
Nearby Weather Stations

Elev 256 ft 53.35 °N, 2.27 °W | Updated 30 minutes ago

Light Rain Showers
Light Showers Rain
54 °F
Feels Like 54 °F
N
4
Wind Variable Wind from NW

Today
High -- | Low -- °F
--% Chance of Precip.
Yesterday
High -- | Low -- °F
Precip. -- in
6:17 AM 7:59 PM
Waning Gibbous, 92% visible
Pressure 30.06 in
Visibility 5.6 miles
Clouds Scattered Clouds 3000 ft
Dew Point 52 °F
Humidity 94%
Rainfall 0.00 in
Snow Depth Not available.
UV 0 out of 12
Pollen Not available.
Air Quality Not available.
Flu Activity Not available.
METAR EGCC 010220Z 32003KT 9000 -SHRA SCT030 12/11 Q1018 TEMPO SHRA
Pressure 30.06 in
Visibility 5.6 miles
Clouds Scattered Clouds 3000 ft
Dew Point 52 °F
Humidity 94%
Rainfall 0.00 in
Snow Depth Not available.
UV 0 out of 12
Pollen Not available.
Air Quality Not available.
Flu Activity Not available.
METAR EGCC 010220Z 32003KT 9000 -SHRA SCT030 12/11 Q1018 TEMPO SHRA

10-Day Weather Forecast

×

Almanac

Astronomy

Sep. 01, 2015 Rise Set
Actual Time
Civil Twilight
Nautical Twilight
Astronomical Twilight
Moon
Length of Visible Light
Length of Day
Tomorrow will be .
, % of the Moon is Illuminated

Today's Extremes

Country Highs Country Lows

Community

WunderPhotos

Upload Photos

1,851,459 photos uploaded!

WunderBlogs® & News

Nearby

Air Quality

  Air Quality AQ Index Pollutant
Not available.

Snow Depth

Station Depth Elevation

Earthquake Activity

City Distance Mag. Time & Date
Minimum magnitude displayed is 2.5.

Coastal Water Temperatures

Place Temperature

Stations

Nearby Weather Stations

Station Location Temp. Windchill Dew Point Humidity Wind Precip. Elev Updated Type